createdAt,value
2022-10-04T00:01:47.846Z,12.35
2022-10-04T00:04:19.116Z,12.63
2022-10-04T00:06:50.960Z,12.46
2022-10-04T00:09:23.429Z,12.29
2022-10-04T00:11:53.880Z,12.59
2022-10-04T00:14:24.240Z,12.37
2022-10-04T00:16:52.715Z,12.22
2022-10-04T00:19:40.293Z,12.27
2022-10-04T00:22:18.473Z,12.05
2022-10-04T00:25:23.128Z,12.37
2022-10-04T00:28:29.063Z,11.73
2022-10-04T00:31:17.525Z,11.85
2022-10-04T00:33:47.637Z,11.80
2022-10-04T00:36:40.607Z,12.07
2022-10-04T00:39:47.632Z,12.32
2022-10-04T00:42:37.756Z,12.44
2022-10-04T00:45:12.918Z,11.80
2022-10-04T00:47:59.324Z,11.86
2022-10-04T00:50:30.761Z,12.19
2022-10-04T00:53:01.053Z,12.15
2022-10-04T00:55:35.146Z,11.22
2022-10-04T00:58:07.514Z,10.92
2022-10-04T01:00:36.894Z,11.16
2022-10-04T01:03:07.313Z,11.41
2022-10-04T01:05:38.003Z,11.48
2022-10-04T01:08:07.600Z,11.32
2022-10-04T01:10:41.681Z,11.20
2022-10-04T01:13:15.367Z,11.96
2022-10-04T01:15:46.337Z,11.92
2022-10-04T01:18:16.606Z,11.33
2022-10-04T01:20:54.515Z,11.84
2022-10-04T01:23:41.873Z,12.00
2022-10-04T01:26:39.200Z,11.73
2022-10-04T01:29:10.310Z,11.54
2022-10-04T01:31:40.723Z,11.73
2022-10-04T01:34:09.066Z,11.90
2022-10-04T01:36:38.095Z,11.36
2022-10-04T01:39:08.215Z,11.75
2022-10-04T01:41:44.635Z,11.34
2022-10-04T01:44:20.126Z,11.69
2022-10-04T01:46:49.633Z,11.84
2022-10-04T01:49:20.223Z,11.93
2022-10-04T01:51:54.463Z,11.50
2022-10-04T01:54:32.527Z,10.84
2022-10-04T01:57:05.210Z,10.44
2022-10-04T01:59:39.506Z,11.02
2022-10-04T02:02:10.847Z,11.74
2022-10-04T02:04:40.466Z,11.64
2022-10-04T02:07:13.772Z,11.83
2022-10-04T02:09:45.705Z,11.52
2022-10-04T02:12:17.206Z,11.54
2022-10-04T02:14:52.648Z,11.31
2022-10-04T02:17:23.292Z,11.24
2022-10-04T02:19:51.309Z,11.01
2022-10-04T02:22:20.223Z,10.95
2022-10-04T02:24:50.826Z,11.38
2022-10-04T02:27:18.836Z,11.62
2022-10-04T02:29:47.078Z,11.01
2022-10-04T02:32:33.513Z,10.47
2022-10-04T02:35:01.831Z,11.00
2022-10-04T02:37:30.213Z,11.16
2022-10-04T02:40:06.216Z,11.17
2022-10-04T02:42:40.250Z,11.18
2022-10-04T02:45:14.899Z,11.43
2022-10-04T02:47:46.707Z,11.46
2022-10-04T02:50:27.624Z,11.37
2022-10-04T02:52:58.866Z,11.43
2022-10-04T02:55:31.278Z,11.71
2022-10-04T02:58:01.150Z,11.32
2022-10-04T03:00:30.710Z,10.95
2022-10-04T03:03:16.021Z,11.58
2022-10-04T03:05:46.055Z,11.28
2022-10-04T03:08:14.637Z,11.30
2022-10-04T03:10:45.006Z,11.35
2022-10-04T03:13:16.006Z,10.67
2022-10-04T03:15:44.448Z,10.87
2022-10-04T03:18:12.847Z,11.29
2022-10-04T03:20:41.690Z,11.10
2022-10-04T03:23:11.787Z,10.65
2022-10-04T03:25:47.343Z,10.35
2022-10-04T03:28:16.142Z,10.51
2022-10-04T03:30:45.328Z,10.66
2022-10-04T03:33:18.809Z,10.88
2022-10-04T03:35:48.667Z,10.50
2022-10-04T03:38:17.862Z,10.39
2022-10-04T03:40:53.232Z,10.14
2022-10-04T03:43:24.791Z,10.80
2022-10-04T03:45:53.443Z,10.66
2022-10-04T03:48:29.061Z,10.59
2022-10-04T03:50:57.566Z,10.39
2022-10-04T03:53:30.896Z,10.35
2022-10-04T03:56:04.175Z,10.46
2022-10-04T03:58:32.883Z,10.29
2022-10-04T04:01:14.640Z,10.45
2022-10-04T04:03:52.906Z,10.33
2022-10-04T04:06:21.994Z,10.12
2022-10-04T04:08:53.362Z,10.36
2022-10-04T04:11:24.909Z,10.18
2022-10-04T04:14:00.168Z,10.38
2022-10-04T04:16:28.613Z,10.71
2022-10-04T04:19:00.613Z,10.83
2022-10-04T04:21:29.166Z,10.85
2022-10-04T04:24:00.770Z,10.96
2022-10-04T04:26:36.082Z,11.26
2022-10-04T04:29:08.150Z,10.76
2022-10-04T04:31:40.268Z,11.13
2022-10-04T04:34:17.865Z,11.06
2022-10-04T04:36:46.138Z,11.10
2022-10-04T04:39:37.302Z,10.84
2022-10-04T04:42:15.401Z,11.28
2022-10-04T04:44:49.844Z,11.09
2022-10-04T04:47:33.212Z,11.35
2022-10-04T04:50:07.260Z,11.20
2022-10-04T04:52:36.247Z,10.87
2022-10-04T04:55:06.185Z,10.93
2022-10-04T04:57:36.008Z,10.49
2022-10-04T05:00:05.257Z,10.77
2022-10-04T05:02:35.595Z,10.74
2022-10-04T05:05:23.048Z,10.22
2022-10-04T05:07:52.670Z,9.96
2022-10-04T05:10:31.361Z,10.21
2022-10-04T05:13:04.453Z,9.96
2022-10-04T05:15:34.960Z,10.72
2022-10-04T05:18:03.664Z,11.10
2022-10-04T05:20:34.446Z,11.17
2022-10-04T05:23:02.473Z,11.34
2022-10-04T05:25:33.616Z,10.98
2022-10-04T05:28:03.620Z,10.97
2022-10-04T05:30:42.900Z,10.55
2022-10-04T05:33:13.418Z,10.99
2022-10-04T05:35:55.792Z,11.38
2022-10-04T05:38:28.917Z,10.75
2022-10-04T05:41:02.174Z,11.29
2022-10-04T05:43:36.923Z,11.56
2022-10-04T05:46:23.421Z,12.03
2022-10-04T05:48:55.448Z,11.58
2022-10-04T05:51:25.699Z,12.03
2022-10-04T05:53:54.434Z,11.67
2022-10-04T05:56:37.654Z,11.37
2022-10-04T05:59:15.223Z,11.69
2022-10-04T06:01:49.205Z,12.04
2022-10-04T06:04:32.540Z,11.78
2022-10-04T06:07:03.121Z,12.25
2022-10-04T06:09:47.103Z,12.72
2022-10-04T06:12:18.496Z,12.90
2022-10-04T06:15:08.356Z,13.34
2022-10-04T06:18:03.533Z,13.72
2022-10-04T06:20:54.917Z,13.95
2022-10-04T06:23:24.742Z,13.44
2022-10-04T06:25:56.348Z,13.62
2022-10-04T06:28:28.034Z,13.59
2022-10-04T06:31:27.904Z,14.38
2022-10-04T06:34:11.791Z,14.69
2022-10-04T06:37:02.160Z,14.76
2022-10-04T06:39:45.138Z,14.92
2022-10-04T06:42:40.651Z,15.21
2022-10-04T06:45:22.846Z,15.26
2022-10-04T06:48:18.622Z,14.71
2022-10-04T06:50:51.144Z,14.28
2022-10-04T06:53:27.879Z,14.39
2022-10-04T06:56:12.759Z,15.02
2022-10-04T06:59:23.674Z,14.42
2022-10-04T07:01:52.085Z,15.51
2022-10-04T07:04:41.161Z,15.61
2022-10-04T07:07:34.929Z,15.17
2022-10-04T07:10:16.561Z,15.57
2022-10-04T07:12:49.035Z,15.31
2022-10-04T07:15:21.077Z,15.78
2022-10-04T07:17:50.374Z,16.65
2022-10-04T07:20:23.743Z,16.16
2022-10-04T07:22:56.938Z,16.22
2022-10-04T07:25:28.961Z,17.33
2022-10-04T07:28:14.825Z,17.64
2022-10-04T07:30:48.609Z,17.66
2022-10-04T07:33:19.943Z,17.58
2022-10-04T07:35:52.022Z,17.59
2022-10-04T07:38:25.044Z,18.10
2022-10-04T07:41:04.965Z,18.34
2022-10-04T07:43:35.800Z,18.33
2022-10-04T07:46:07.666Z,18.42
2022-10-04T07:48:41.438Z,18.19
2022-10-04T07:51:20.587Z,17.85
2022-10-04T07:53:52.172Z,18.24
2022-10-04T07:56:23.667Z,17.83
2022-10-04T07:58:58.063Z,17.95
2022-10-04T08:01:31.558Z,18.27
2022-10-04T08:04:26.532Z,18.53
2022-10-04T08:06:59.960Z,18.72
2022-10-04T08:09:48.955Z,17.71
2022-10-04T08:12:22.024Z,17.95
2022-10-04T08:14:56.711Z,17.74
2022-10-04T08:17:41.835Z,18.33
2022-10-04T08:20:24.594Z,18.52
2022-10-04T08:23:05.866Z,17.88
2022-10-04T08:25:42.561Z,19.54
2022-10-04T08:28:39.501Z,18.66
2022-10-04T08:31:21.186Z,18.65
2022-10-04T08:33:59.489Z,18.33
2022-10-04T08:36:41.876Z,18.95
2022-10-04T08:39:24.348Z,18.00
2022-10-04T08:42:28.787Z,18.91
2022-10-04T08:45:32.402Z,18.26
2022-10-04T08:48:34.118Z,19.97
2022-10-04T08:51:30.595Z,18.50
2022-10-04T08:54:35.729Z,19.76
2022-10-04T08:57:25.502Z,21.13
2022-10-04T09:00:21.969Z,19.90
2022-10-04T09:03:17.830Z,18.81
2022-10-04T09:05:57.155Z,19.64
2022-10-04T09:09:15.442Z,21.27
2022-10-04T09:11:56.242Z,20.56
2022-10-04T09:14:50.128Z,19.80
2022-10-04T09:17:22.788Z,21.35
2022-10-04T09:20:09.079Z,19.95
2022-10-04T09:22:50.089Z,20.68
2022-10-04T09:25:23.808Z,21.22
2022-10-04T09:28:22.354Z,19.71
2022-10-04T09:31:03.041Z,20.14
2022-10-04T09:33:51.656Z,21.56
2022-10-04T09:36:41.549Z,22.14
2022-10-04T09:39:33.581Z,21.62
2022-10-04T09:42:27.813Z,21.98
2022-10-04T09:45:16.741Z,21.54
2022-10-04T09:47:49.185Z,21.98
2022-10-04T09:50:50.022Z,21.46
2022-10-04T09:53:35.966Z,21.10
2022-10-04T09:56:39.073Z,20.21
2022-10-04T09:59:32.500Z,21.93
2022-10-04T10:02:33.683Z,21.68
2022-10-04T10:05:21.006Z,23.41
2022-10-04T10:07:53.221Z,23.93
2022-10-04T10:10:45.313Z,22.28
2022-10-04T10:13:43.345Z,22.00
2022-10-04T10:16:22.785Z,21.60
2022-10-04T10:19:01.086Z,21.95
2022-10-04T10:21:49.672Z,21.72
2022-10-04T10:24:30.775Z,21.99
2022-10-04T10:27:09.724Z,21.19
2022-10-04T10:30:05.273Z,22.13
2022-10-04T10:32:42.811Z,21.92
2022-10-04T10:35:21.440Z,21.37
2022-10-04T10:38:04.793Z,23.04
2022-10-04T10:40:41.043Z,21.93
2022-10-04T10:43:33.521Z,23.53
2022-10-04T10:46:06.106Z,22.92
2022-10-04T10:48:48.365Z,21.37
2022-10-04T10:51:20.572Z,23.16
2022-10-04T10:54:17.045Z,23.14
2022-10-04T10:56:56.824Z,23.61
2022-10-04T10:59:54.096Z,23.57
2022-10-04T11:03:11.910Z,22.04
2022-10-04T11:06:25.143Z,22.71
2022-10-04T11:09:23.512Z,23.76
2022-10-04T11:12:28.778Z,23.96
2022-10-04T11:15:13.486Z,23.69
2022-10-04T11:18:20.279Z,22.85
2022-10-04T11:21:28.163Z,22.87
2022-10-04T11:24:30.502Z,23.09
2022-10-04T11:27:14.932Z,24.13
2022-10-04T11:30:00.311Z,22.94
2022-10-04T11:32:55.269Z,23.64
2022-10-04T11:36:15.399Z,23.12
2022-10-04T11:38:53.296Z,23.18
2022-10-04T11:41:29.258Z,22.54
2022-10-04T11:44:17.399Z,23.39
2022-10-04T11:46:51.142Z,24.39
2022-10-04T11:49:37.926Z,22.81
2022-10-04T11:52:31.375Z,23.20
2022-10-04T11:55:35.283Z,23.86
2022-10-04T11:58:11.978Z,24.71
2022-10-04T12:01:01.030Z,23.79
2022-10-04T12:03:59.946Z,23.05
2022-10-04T12:06:40.253Z,23.66
2022-10-04T12:09:15.719Z,23.65
2022-10-04T12:12:33.590Z,24.25
2022-10-04T12:15:22.337Z,23.15
2022-10-04T12:18:12.649Z,23.35
2022-10-04T12:21:17.973Z,22.56
2022-10-04T12:24:09.639Z,23.19
2022-10-04T12:27:21.876Z,23.41
2022-10-04T12:30:22.195Z,23.59
2022-10-04T12:32:58.196Z,23.83
2022-10-04T12:35:33.844Z,22.82
2022-10-04T12:38:19.752Z,23.56
2022-10-04T12:40:53.804Z,23.42
2022-10-04T12:43:28.169Z,23.29
2022-10-04T12:46:06.593Z,22.52
2022-10-04T12:48:48.250Z,23.95
2022-10-04T12:51:29.999Z,22.81
2022-10-04T12:54:04.150Z,23.52
2022-10-04T12:56:44.405Z,24.26
2022-10-04T12:59:29.161Z,24.39
2022-10-04T13:02:05.734Z,23.23
2022-10-04T13:04:38.879Z,24.59
2022-10-04T13:07:30.846Z,23.88
2022-10-04T13:10:24.230Z,23.56
2022-10-04T13:13:13.732Z,24.72
2022-10-04T13:18:35.606Z,24.57
2022-10-04T13:21:06.451Z,24.71
2022-10-04T13:23:54.343Z,23.50
2022-10-04T13:26:42.643Z,24.63
2022-10-04T13:29:18.662Z,24.79
2022-10-04T13:31:50.906Z,25.56
2022-10-04T13:34:28.247Z,24.92
2022-10-04T13:37:14.224Z,24.46
2022-10-04T13:39:59.410Z,25.26
2022-10-04T13:42:42.435Z,24.09
2022-10-04T13:45:32.132Z,23.90
2022-10-04T13:48:26.435Z,24.59
2022-10-04T13:51:36.667Z,24.39
2022-10-04T13:54:31.261Z,23.81
2022-10-04T13:57:07.551Z,24.34
2022-10-04T13:59:44.263Z,23.16
2022-10-04T14:02:34.521Z,24.33
2022-10-04T14:05:47.215Z,25.23
2022-10-04T14:08:49.920Z,24.17
2022-10-04T14:12:04.414Z,23.93
2022-10-04T14:15:14.681Z,24.16
2022-10-04T14:18:26.915Z,25.38
2022-10-04T14:21:35.535Z,24.82
2022-10-04T14:24:35.623Z,24.67
2022-10-04T14:27:37.452Z,24.08
2022-10-04T14:30:14.929Z,23.29
2022-10-04T14:33:15.330Z,23.77
2022-10-04T14:35:47.967Z,23.82
2022-10-04T14:38:37.634Z,23.10
2022-10-04T14:41:46.247Z,23.64
2022-10-04T14:44:51.047Z,24.11
2022-10-04T14:47:38.751Z,23.27
2022-10-04T14:50:23.120Z,23.00
2022-10-04T14:53:05.166Z,23.31
2022-10-04T14:55:55.701Z,23.40
2022-10-04T14:58:29.104Z,23.39
2022-10-04T15:01:06.675Z,23.38
2022-10-04T15:03:40.661Z,23.58
2022-10-04T15:06:36.522Z,23.51
2022-10-04T15:09:41.284Z,24.08
2022-10-04T15:13:08.727Z,23.50
2022-10-04T15:15:53.409Z,23.42
2022-10-04T15:18:31.365Z,22.87
2022-10-04T15:21:02.685Z,22.48
2022-10-04T15:23:37.883Z,23.27
2022-10-04T15:26:13.917Z,23.13
2022-10-04T15:28:56.823Z,23.20
2022-10-04T15:31:29.699Z,22.60
2022-10-04T15:34:03.200Z,22.99
2022-10-04T15:37:05.450Z,22.56
2022-10-04T15:40:06.367Z,22.19
2022-10-04T15:42:35.475Z,22.44
2022-10-04T15:45:38.722Z,22.60
2022-10-04T15:48:32.925Z,22.31
2022-10-04T15:51:07.124Z,22.74
2022-10-04T15:54:03.096Z,22.23
2022-10-04T15:56:46.256Z,22.50
2022-10-04T15:59:26.750Z,22.45
2022-10-04T16:02:18.558Z,22.26
2022-10-04T16:04:48.101Z,21.83
2022-10-04T16:07:32.224Z,22.14
2022-10-04T16:10:15.152Z,22.92
2022-10-04T16:13:14.246Z,22.43
2022-10-04T16:15:48.133Z,22.17
2022-10-04T16:18:35.606Z,21.50
2022-10-04T16:21:12.816Z,21.44
2022-10-04T16:23:43.992Z,21.20
2022-10-04T16:26:14.022Z,21.59
2022-10-04T16:29:07.109Z,21.60
2022-10-04T16:31:43.922Z,21.21
2022-10-04T16:34:27.103Z,21.03
2022-10-04T16:36:59.779Z,21.08
2022-10-04T16:39:52.309Z,20.68
2022-10-04T16:42:24.558Z,20.86
2022-10-04T16:44:56.097Z,20.58
2022-10-04T16:47:28.563Z,20.55
2022-10-04T16:49:58.901Z,20.19
2022-10-04T16:52:48.383Z,20.41
2022-10-04T16:55:26.665Z,20.17
2022-10-04T16:58:37.615Z,20.33
2022-10-04T17:01:57.557Z,19.96
2022-10-04T17:04:44.864Z,20.03
2022-10-04T17:07:24.936Z,20.21
2022-10-04T17:09:58.134Z,19.65
2022-10-04T17:12:35.367Z,19.20
2022-10-04T17:15:45.527Z,19.38
2022-10-04T17:18:21.209Z,19.83
2022-10-04T17:20:57.909Z,20.41
2022-10-04T17:23:54.652Z,20.64
2022-10-04T17:26:39.560Z,20.60
2022-10-04T17:29:21.737Z,20.53
2022-10-04T17:31:55.202Z,20.36
2022-10-04T17:34:33.330Z,20.32
2022-10-04T17:37:06.355Z,20.24
2022-10-04T17:39:44.382Z,20.12
2022-10-04T17:42:28.774Z,20.16
2022-10-04T17:45:36.795Z,20.08
2022-10-04T17:48:26.736Z,19.89
2022-10-04T17:51:17.603Z,19.89
2022-10-04T17:54:08.038Z,19.74
2022-10-04T17:56:41.406Z,19.71
2022-10-04T17:59:14.106Z,19.58
2022-10-04T18:01:45.912Z,19.45
2022-10-04T18:04:18.757Z,19.34
2022-10-04T18:06:52.372Z,19.24
2022-10-04T18:09:24.185Z,19.21
2022-10-04T18:11:56.871Z,19.05
2022-10-04T18:14:46.610Z,19.05
2022-10-04T18:17:27.043Z,18.95
2022-10-04T18:20:03.083Z,18.90
2022-10-04T18:22:43.425Z,18.86
2022-10-04T18:25:15.682Z,18.67
2022-10-04T18:28:02.194Z,18.66
2022-10-04T18:30:30.795Z,18.42
2022-10-04T18:32:59.095Z,18.35
2022-10-04T18:35:29.208Z,18.32
2022-10-04T18:37:59.813Z,18.27
2022-10-04T18:40:28.927Z,18.47
2022-10-04T18:43:01.796Z,18.24
2022-10-04T18:45:31.246Z,18.19
2022-10-04T18:48:01.337Z,18.11
2022-10-04T18:50:35.724Z,18.08
2022-10-04T18:53:24.274Z,18.13
2022-10-04T18:55:59.770Z,18.13
2022-10-04T18:58:59.403Z,18.09
2022-10-04T19:02:04.020Z,17.95
2022-10-04T19:04:39.719Z,17.81
2022-10-04T19:07:10.969Z,17.62
2022-10-04T19:10:04.891Z,17.68
2022-10-04T19:12:41.746Z,17.62
2022-10-04T19:15:23.274Z,17.61
2022-10-04T19:17:56.568Z,17.36
2022-10-04T19:20:27.915Z,16.91
2022-10-04T19:23:04.267Z,17.28
2022-10-04T19:25:39.135Z,17.32
2022-10-04T19:28:10.532Z,17.37
2022-10-04T19:31:01.622Z,17.40
2022-10-04T19:33:38.308Z,17.26
2022-10-04T19:36:15.354Z,17.18
2022-10-04T19:38:53.512Z,17.08
2022-10-04T19:41:30.855Z,17.04
2022-10-04T19:44:05.242Z,17.05
2022-10-04T19:46:41.677Z,16.46
2022-10-04T19:49:19.029Z,16.75
2022-10-04T19:51:51.324Z,16.66
2022-10-04T19:54:22.896Z,16.63
2022-10-04T19:56:51.957Z,16.66
2022-10-04T19:59:24.166Z,16.55
2022-10-04T20:01:53.800Z,16.59
2022-10-04T20:04:38.517Z,16.36
2022-10-04T20:07:13.193Z,16.34
2022-10-04T20:09:59.273Z,16.37
2022-10-04T20:12:36.451Z,16.40
2022-10-04T20:15:15.873Z,16.34
2022-10-04T20:17:47.526Z,16.13
2022-10-04T20:20:17.615Z,16.12
2022-10-04T20:22:57.342Z,16.11
2022-10-04T20:26:06.148Z,15.97
2022-10-04T20:28:44.824Z,15.92
2022-10-04T20:31:53.696Z,15.93
2022-10-04T20:34:34.280Z,15.87
2022-10-04T20:37:03.152Z,15.85
2022-10-04T20:40:01.520Z,15.88
2022-10-04T20:42:32.677Z,15.56
2022-10-04T20:45:03.704Z,15.40
2022-10-04T20:47:39.233Z,15.69
2022-10-04T20:50:16.493Z,15.66
2022-10-04T20:52:46.687Z,15.55
2022-10-04T20:55:27.162Z,15.50
2022-10-04T20:57:57.010Z,15.48
2022-10-04T21:00:27.334Z,15.37
2022-10-04T21:03:09.611Z,15.61
2022-10-04T21:05:40.325Z,15.60
2022-10-04T21:08:15.973Z,15.56
2022-10-04T21:11:19.444Z,15.58
2022-10-04T21:13:59.189Z,15.13
2022-10-04T21:16:52.331Z,15.29
2022-10-04T21:19:47.329Z,15.46
2022-10-04T21:22:42.923Z,15.42
2022-10-04T21:25:42.577Z,15.33
2022-10-04T21:28:40.758Z,15.07
2022-10-04T21:31:09.049Z,14.56
2022-10-04T21:33:37.904Z,13.56
2022-10-04T21:36:06.966Z,13.68
2022-10-04T21:38:35.256Z,13.70
2022-10-04T21:41:04.838Z,14.62
2022-10-04T21:43:33.382Z,13.49
2022-10-04T21:46:01.795Z,13.27
2022-10-04T21:48:30.129Z,14.14
2022-10-04T21:50:58.399Z,14.55
2022-10-04T21:53:26.615Z,14.66
2022-10-04T21:55:54.897Z,13.54
2022-10-04T21:58:24.467Z,14.27
2022-10-04T22:00:52.732Z,14.56
2022-10-04T22:03:21.086Z,14.44
2022-10-04T22:05:49.334Z,14.39
2022-10-04T22:08:17.631Z,14.42
2022-10-04T22:10:47.232Z,14.40
2022-10-04T22:13:15.551Z,14.28
2022-10-04T22:15:45.190Z,14.05
2022-10-04T22:18:13.467Z,14.26
2022-10-04T22:20:41.702Z,14.30
2022-10-04T22:23:13.366Z,13.95
2022-10-04T22:25:41.624Z,14.07
2022-10-04T22:28:18.422Z,14.28
2022-10-04T22:30:49.450Z,14.25
2022-10-04T22:33:28.265Z,14.12
2022-10-04T22:35:57.612Z,13.87
2022-10-04T22:38:25.817Z,14.08
2022-10-04T22:40:54.539Z,13.87
2022-10-04T22:43:22.746Z,13.42
2022-10-04T22:45:58.506Z,13.26
2022-10-04T22:48:28.898Z,13.89
2022-10-04T22:50:57.220Z,13.92
2022-10-04T22:53:25.836Z,13.13
2022-10-04T22:55:55.895Z,13.42
2022-10-04T22:58:24.197Z,13.66
2022-10-04T23:00:54.483Z,13.40
2022-10-04T23:03:31.175Z,12.88
2022-10-04T23:05:59.587Z,13.03
2022-10-04T23:08:28.242Z,13.27
2022-10-04T23:10:56.848Z,12.95
2022-10-04T23:13:26.352Z,12.79
2022-10-04T23:15:58.727Z,12.50
2022-10-04T23:18:28.025Z,13.20
2022-10-04T23:20:59.009Z,13.34
2022-10-04T23:23:28.858Z,13.14
2022-10-04T23:25:57.213Z,12.25
2022-10-04T23:28:25.739Z,12.44
2022-10-04T23:31:03.097Z,12.94
2022-10-04T23:33:31.501Z,12.62
2022-10-04T23:35:59.874Z,12.46
2022-10-04T23:38:29.355Z,12.83
2022-10-04T23:40:57.620Z,13.12
2022-10-04T23:43:26.899Z,13.20
2022-10-04T23:45:58.772Z,12.98
2022-10-04T23:48:28.772Z,12.43
2022-10-04T23:50:59.761Z,12.55
2022-10-04T23:53:29.078Z,12.80
2022-10-04T23:55:58.377Z,12.55
2022-10-04T23:58:31.608Z,12.26
